Time;durP1;ratioP1;P1;durP2;ratioP2;P2;SDS_P1;SDS_P2;PMS_P1;PMS_P2;Temp;Humidity;BMP_temperature;BMP_pressure;BME280_temperature;BME280_humidity;BME280_pressure;Samples;Min_cycle;Max_cycle;Signal;HPM_P1;HPM_P2
2022/07/18 00:01:50;;;;;;;;;;;18.00;81.80;;;;;;5102837;28;19954;-73
2022/07/18 00:04:17;;;;;;;;;;;17.90;82.00;;;;;;5102142;28;19951;-73
2022/07/18 00:06:46;;;;;;;;;;;17.80;81.70;;;;;;5101077;28;19958;-73
2022/07/18 00:09:12;;;;;;;;;;;17.70;81.30;;;;;;5106307;28;19992;-72
2022/07/18 00:11:39;;;;;;;;;;;17.60;81.60;;;;;;5106772;28;19920;-73
2022/07/18 00:14:07;;;;;;;;;;;17.50;81.80;;;;;;5106114;28;19983;-73
2022/07/18 00:16:34;;;;;;;;;;;17.50;81.90;;;;;;5106293;28;19926;-72
2022/07/18 00:19:02;;;;;;;;;;;17.50;82.10;;;;;;5106562;28;19920;-73
2022/07/18 00:21:28;;;;;;;;;;;17.50;82.10;;;;;;5106200;28;19920;-73
2022/07/18 00:23:55;;;;;;;;;;;17.50;81.60;;;;;;5105515;28;19958;-73
2022/07/18 00:26:22;;;;;;;;;;;17.40;81.80;;;;;;5101280;28;19921;-72
2022/07/18 00:28:48;;;;;;;;;;;17.30;81.90;;;;;;5105836;28;20238;-72
2022/07/18 00:31:16;;;;;;;;;;;17.30;82.20;;;;;;5105953;28;19995;-73
2022/07/18 00:33:43;;;;;;;;;;;17.30;82.50;;;;;;5088804;28;20258;-73
2022/07/18 00:36:10;;;;;;;;;;;17.20;82.70;;;;;;5085345;28;20227;-73
2022/07/18 00:38:36;;;;;;;;;;;17.20;83.10;;;;;;5091127;28;19952;-73
2022/07/18 00:41:03;;;;;;;;;;;17.20;83.30;;;;;;5100378;28;19934;-72
2022/07/18 00:43:30;;;;;;;;;;;17.20;83.30;;;;;;5105212;28;19927;-72
2022/07/18 00:45:56;;;;;;;;;;;17.10;83.60;;;;;;5105664;28;19920;-73
2022/07/18 00:48:24;;;;;;;;;;;17.10;83.90;;;;;;5105471;28;19959;-72
2022/07/18 00:50:51;;;;;;;;;;;17.10;84.00;;;;;;5105573;28;19926;-73
2022/07/18 00:53:18;;;;;;;;;;;17.00;83.90;;;;;;5104515;28;20200;-72
2022/07/18 00:55:46;;;;;;;;;;;16.90;84.20;;;;;;5104538;28;19920;-73
2022/07/18 00:58:13;;;;;;;;;;;16.80;84.40;;;;;;5099685;28;19927;-73
2022/07/18 01:03:40;;;;;;;;;;;16.50;85.40;;;;;;5022819;28;19917;-72
2022/07/18 01:06:06;;;;;;;;;;;16.30;85.60;;;;;;5023138;28;19967;-72
2022/07/18 01:08:34;;;;;;;;;;;16.20;86.00;;;;;;5048785;28;19963;-72
2022/07/18 01:11:01;;;;;;;;;;;16.20;86.60;;;;;;5105373;28;19926;-72
2022/07/18 01:13:28;;;;;;;;;;;16.20;87.60;;;;;;5103968;28;19979;-72
2022/07/18 01:15:55;;;;;;;;;;;16.10;87.00;;;;;;5105330;28;19954;-72
2022/07/18 01:18:21;;;;;;;;;;;16.10;87.20;;;;;;5103993;28;19920;-72
2022/07/18 01:20:49;;;;;;;;;;;16.10;87.40;;;;;;5085602;28;19920;-72
2022/07/18 01:23:16;;;;;;;;;;;16.10;87.70;;;;;;5094024;28;19983;-72
2022/07/18 01:25:43;;;;;;;;;;;16.10;87.80;;;;;;5099057;28;19948;-73
2022/07/18 01:28:09;;;;;;;;;;;16.10;87.80;;;;;;5097171;28;19966;-72
2022/07/18 01:30:36;;;;;;;;;;;16.10;87.60;;;;;;5102023;28;19983;-72
2022/07/18 01:33:03;;;;;;;;;;;16.10;87.20;;;;;;5083657;28;19959;-73
2022/07/18 01:35:30;;;;;;;;;;;16.00;87.00;;;;;;5084195;28;19958;-72
2022/07/18 01:37:59;;;;;;;;;;;16.00;87.00;;;;;;5102921;28;19974;-72
2022/07/18 01:40:26;;;;;;;;;;;15.90;87.10;;;;;;5102114;28;19951;-73
2022/07/18 01:42:53;;;;;;;;;;;15.90;87.30;;;;;;5083859;28;19920;-73
2022/07/18 01:45:21;;;;;;;;;;;15.90;87.50;;;;;;5085754;28;19920;-72
2022/07/18 01:47:48;;;;;;;;;;;15.90;87.70;;;;;;5104525;28;19978;-73
2022/07/18 01:50:15;;;;;;;;;;;15.80;87.70;;;;;;5102698;28;19987;-73
2022/07/18 01:52:41;;;;;;;;;;;15.80;87.70;;;;;;5083835;28;20160;-72
2022/07/18 01:55:10;;;;;;;;;;;15.80;88.00;;;;;;5084889;28;19952;-73
2022/07/18 01:57:37;;;;;;;;;;;15.80;88.10;;;;;;5103603;28;19920;-73
2022/07/18 02:00:04;;;;;;;;;;;15.70;88.40;;;;;;5102005;28;19983;-72
2022/07/18 02:02:31;;;;;;;;;;;15.70;88.70;;;;;;5102634;28;20216;-72
2022/07/18 02:05:00;;;;;;;;;;;15.60;88.80;;;;;;5103619;28;19952;-72
2022/07/18 02:07:27;;;;;;;;;;;15.60;89.00;;;;;;5101418;28;19947;-72
2022/07/18 02:09:53;;;;;;;;;;;15.60;89.20;;;;;;5104125;28;19983;-72
2022/07/18 02:12:21;;;;;;;;;;;15.60;89.60;;;;;;5101977;28;19920;-72
2022/07/18 02:14:48;;;;;;;;;;;15.60;89.80;;;;;;5083316;28;19971;-73
2022/07/18 02:17:15;;;;;;;;;;;15.60;89.90;;;;;;5092630;28;20400;-72
2022/07/18 02:19:42;;;;;;;;;;;15.50;90.00;;;;;;5103858;28;19983;-72
2022/07/18 02:22:09;;;;;;;;;;;15.50;90.00;;;;;;5089147;28;19987;-72
2022/07/18 02:24:35;;;;;;;;;;;15.50;90.00;;;;;;5085375;28;19987;-72
2022/07/18 02:27:02;;;;;;;;;;;15.50;90.10;;;;;;5103529;28;19983;-73
2022/07/18 02:29:30;;;;;;;;;;;15.40;90.10;;;;;;5102878;28;19973;-72
2022/07/18 02:31:57;;;;;;;;;;;15.40;90.10;;;;;;5103144;28;19983;-73
2022/07/18 02:34:23;;;;;;;;;;;15.30;90.10;;;;;;5102908;28;19926;-72
2022/07/18 02:36:50;;;;;;;;;;;15.20;90.30;;;;;;5103073;28;19995;-73
2022/07/18 02:39:17;;;;;;;;;;;15.10;90.30;;;;;;5103595;28;20231;-73
2022/07/18 02:41:44;;;;;;;;;;;15.00;90.40;;;;;;5102923;28;19920;-72
2022/07/18 02:44:11;;;;;;;;;;;15.00;90.60;;;;;;5103011;28;19920;-72
2022/07/18 02:46:39;;;;;;;;;;;15.00;90.50;;;;;;5103093;28;19927;-72
2022/07/18 02:49:06;;;;;;;;;;;14.90;90.60;;;;;;5103181;28;19991;-73
2022/07/18 02:51:32;;;;;;;;;;;14.90;90.70;;;;;;5094039;28;20235;-73
2022/07/18 02:53:59;;;;;;;;;;;14.80;90.70;;;;;;5087489;28;19947;-72
2022/07/18 02:56:26;;;;;;;;;;;14.80;90.80;;;;;;5102762;28;19982;-72
2022/07/18 02:58:52;;;;;;;;;;;14.80;90.90;;;;;;5103551;28;19976;-72
2022/07/18 03:01:19;;;;;;;;;;;14.80;91.40;;;;;;5102470;28;19920;-73
2022/07/18 03:03:47;;;;;;;;;;;14.70;90.90;;;;;;5082493;28;19928;-73
2022/07/18 03:06:14;;;;;;;;;;;14.70;91.10;;;;;;5097906;28;19951;-72
2022/07/18 03:08:40;;;;;;;;;;;14.70;90.90;;;;;;5100682;28;19988;-72
2022/07/18 03:11:07;;;;;;;;;;;14.60;90.90;;;;;;5102345;28;19988;-73
2022/07/18 03:13:33;;;;;;;;;;;14.50;91.10;;;;;;5090411;28;19987;-72
2022/07/18 03:16:00;;;;;;;;;;;14.50;91.20;;;;;;5102844;28;19992;-72
2022/07/18 03:18:27;;;;;;;;;;;14.40;91.20;;;;;;5102499;28;19952;-73
2022/07/18 03:20:55;;;;;;;;;;;14.40;91.20;;;;;;5102599;28;19986;-73
2022/07/18 03:23:21;;;;;;;;;;;14.40;91.30;;;;;;5094078;28;19988;-73
2022/07/18 03:25:48;;;;;;;;;;;14.30;91.40;;;;;;5093843;28;19927;-72
2022/07/18 03:28:15;;;;;;;;;;;14.30;91.50;;;;;;5102916;28;19999;-73
2022/07/18 03:30:42;;;;;;;;;;;14.20;91.50;;;;;;5102295;28;19926;-72
2022/07/18 03:33:08;;;;;;;;;;;14.20;91.60;;;;;;5102293;28;20146;-72
2022/07/18 03:35:35;;;;;;;;;;;14.20;91.50;;;;;;5102486;28;20144;-72
2022/07/18 03:38:03;;;;;;;;;;;14.10;91.70;;;;;;5103407;28;20099;-72
2022/07/18 03:40:30;;;;;;;;;;;14.10;91.80;;;;;;5102758;28;19963;-73
2022/07/18 03:42:57;;;;;;;;;;;14.00;92.00;;;;;;5106194;28;19926;-72
2022/07/18 03:45:23;;;;;;;;;;;14.00;92.00;;;;;;5106527;28;19927;-72
2022/07/18 03:47:50;;;;;;;;;;;14.00;92.30;;;;;;5106133;28;19920;-73
2022/07/18 03:50:16;;;;;;;;;;;14.00;92.40;;;;;;5106538;28;19990;-72
2022/07/18 03:52:43;;;;;;;;;;;14.00;92.40;;;;;;5095385;28;19928;-72
2022/07/18 03:55:11;;;;;;;;;;;14.00;92.50;;;;;;5106162;28;19920;-73
2022/07/18 03:57:38;;;;;;;;;;;14.00;92.60;;;;;;5106738;28;19978;-72
2022/07/18 04:00:07;;;;;;;;;;;13.90;92.60;;;;;;5106239;28;20123;-73
2022/07/18 04:02:34;;;;;;;;;;;14.00;92.70;;;;;;5105996;28;19924;-72
2022/07/18 04:05:00;;;;;;;;;;;14.00;92.70;;;;;;5105422;28;19928;-73
2022/07/18 04:07:27;;;;;;;;;;;14.00;92.90;;;;;;5103933;28;20167;-72
2022/07/18 04:09:54;;;;;;;;;;;14.00;92.90;;;;;;5106092;28;19932;-72
2022/07/18 04:12:22;;;;;;;;;;;14.00;92.90;;;;;;5088065;28;19988;-72
2022/07/18 04:14:48;;;;;;;;;;;14.00;92.90;;;;;;5087397;28;19963;-73
2022/07/18 04:17:15;;;;;;;;;;;14.00;93.00;;;;;;5105914;28;20170;-72
2022/07/18 04:19:42;;;;;;;;;;;14.00;93.10;;;;;;5106569;28;19955;-72
2022/07/18 04:22:08;;;;;;;;;;;13.90;93.00;;;;;;5097039;28;20211;-72
2022/07/18 04:24:35;;;;;;;;;;;13.90;93.10;;;;;;5093389;28;20011;-72
2022/07/18 04:27:02;;;;;;;;;;;13.90;93.10;;;;;;5103362;28;19927;-72
2022/07/18 04:29:31;;;;;;;;;;;13.90;93.00;;;;;;5106198;28;19920;-72
2022/07/18 04:31:58;;;;;;;;;;;13.90;93.00;;;;;;5086004;28;19920;-72
2022/07/18 04:34:24;;;;;;;;;;;14.00;92.60;;;;;;5085418;28;19962;-71
2022/07/18 04:36:51;;;;;;;;;;;14.00;92.40;;;;;;5086004;28;19920;-72
2022/07/18 04:39:18;;;;;;;;;;;14.00;92.20;;;;;;5100784;28;19951;-71
2022/07/18 04:41:44;;;;;;;;;;;14.00;92.10;;;;;;5106605;28;19926;-69
2022/07/18 04:44:11;;;;;;;;;;;14.10;92.00;;;;;;5105424;28;19920;-72
2022/07/18 04:46:39;;;;;;;;;;;14.20;92.10;;;;;;5105994;28;19959;-72
2022/07/18 04:49:06;;;;;;;;;;;14.20;92.30;;;;;;5106437;28;19981;-72
2022/07/18 04:51:33;;;;;;;;;;;14.30;92.60;;;;;;5106271;28;20119;-72
2022/07/18 04:53:59;;;;;;;;;;;14.40;93.10;;;;;;5104478;28;20139;-71
2022/07/18 04:56:26;;;;;;;;;;;14.50;93.30;;;;;;5105762;28;19960;-73
2022/07/18 04:58:53;;;;;;;;;;;14.60;93.50;;;;;;5105912;28;19928;-72
2022/07/18 05:01:19;;;;;;;;;;;14.70;93.60;;;;;;5105708;28;19988;-72
2022/07/18 05:03:47;;;;;;;;;;;14.80;93.70;;;;;;5105243;28;19920;-72
2022/07/18 05:06:14;;;;;;;;;;;14.90;93.60;;;;;;5105986;28;19920;-72
2022/07/18 05:08:43;;;;;;;;;;;15.00;93.40;;;;;;5103418;28;19920;-72
2022/07/18 05:11:09;;;;;;;;;;;15.10;93.40;;;;;;5102288;28;19956;-72
2022/07/18 05:13:36;;;;;;;;;;;15.20;93.20;;;;;;5089930;28;19944;-72
2022/07/18 05:16:03;;;;;;;;;;;15.30;93.00;;;;;;5087862;28;19955;-72
2022/07/18 05:18:29;;;;;;;;;;;15.40;93.40;;;;;;5085567;28;19959;-72
2022/07/18 05:20:57;;;;;;;;;;;15.50;93.10;;;;;;5085540;28;19952;-72
2022/07/18 05:23:25;;;;;;;;;;;15.60;92.90;;;;;;5094327;28;19921;-71
2022/07/18 05:25:51;;;;;;;;;;;15.70;92.80;;;;;;5105107;28;19920;-72
2022/07/18 05:28:18;;;;;;;;;;;15.70;92.90;;;;;;5101417;28;19927;-71
2022/07/18 05:30:45;;;;;;;;;;;15.90;93.10;;;;;;5105397;28;19970;-72
2022/07/18 05:33:11;;;;;;;;;;;16.00;93.00;;;;;;5099805;28;19925;-72
2022/07/18 05:35:38;;;;;;;;;;;16.10;92.50;;;;;;5102819;28;19920;-71
2022/07/18 05:38:06;;;;;;;;;;;16.20;92.10;;;;;;5104645;28;19920;-73
2022/07/18 05:40:33;;;;;;;;;;;16.30;92.10;;;;;;5104098;28;19920;-71
2022/07/18 05:43:00;;;;;;;;;;;16.50;92.00;;;;;;5104005;28;19920;-71
2022/07/18 05:45:26;;;;;;;;;;;16.60;91.70;;;;;;5104551;28;19920;-71
2022/07/18 05:47:53;;;;;;;;;;;16.70;91.60;;;;;;5104403;28;20226;-71
2022/07/18 05:50:20;;;;;;;;;;;16.80;91.80;;;;;;5104353;28;19920;-71
2022/07/18 05:52:47;;;;;;;;;;;16.90;91.60;;;;;;5103647;28;19986;-71
2022/07/18 05:55:15;;;;;;;;;;;17.00;91.20;;;;;;5103955;28;19920;-71
2022/07/18 05:57:42;;;;;;;;;;;17.10;91.40;;;;;;5104007;28;20254;-71
2022/07/18 06:00:09;;;;;;;;;;;17.30;91.40;;;;;;5103993;28;19920;-72
2022/07/18 06:02:36;;;;;;;;;;;17.30;91.10;;;;;;5103974;28;19920;-71
2022/07/18 06:05:03;;;;;;;;;;;17.50;90.50;;;;;;5102655;28;19920;-71
2022/07/18 06:07:30;;;;;;;;;;;17.60;89.00;;;;;;5101784;28;19983;-72
2022/07/18 06:09:56;;;;;;;;;;;17.70;88.50;;;;;;5103915;28;19979;-71
2022/07/18 06:12:24;;;;;;;;;;;17.80;88.10;;;;;;5103958;28;19920;-72
2022/07/18 06:14:51;;;;;;;;;;;17.90;87.70;;;;;;5103481;28;20045;-72
2022/07/18 06:17:18;;;;;;;;;;;18.00;89.00;;;;;;5103852;28;19920;-72
2022/07/18 06:19:44;;;;;;;;;;;18.10;89.30;;;;;;5104178;28;19955;-71
2022/07/18 06:22:11;;;;;;;;;;;18.10;88.90;;;;;;5103885;28;19955;-72
2022/07/18 06:24:38;;;;;;;;;;;18.20;89.70;;;;;;5102967;28;20246;-72
2022/07/18 06:27:05;;;;;;;;;;;18.30;90.30;;;;;;5103852;28;19983;-72
2022/07/18 06:29:33;;;;;;;;;;;18.40;89.60;;;;;;5103333;28;19991;-71
2022/07/18 06:31:59;;;;;;;;;;;18.50;90.40;;;;;;5102769;28;19994;-71
2022/07/18 06:34:26;;;;;;;;;;;18.50;90.70;;;;;;5103104;28;20221;-72
2022/07/18 06:36:53;;;;;;;;;;;18.60;90.10;;;;;;5103965;28;19924;-73
2022/07/18 06:39:19;;;;;;;;;;;18.70;89.80;;;;;;5103155;28;19966;-72
2022/07/18 06:41:46;;;;;;;;;;;18.80;88.10;;;;;;5103974;28;20171;-73
2022/07/18 06:44:13;;;;;;;;;;;18.90;88.20;;;;;;5103203;28;19984;-71
2022/07/18 06:46:41;;;;;;;;;;;19.00;88.20;;;;;;5094134;28;20219;-70
2022/07/18 06:49:08;;;;;;;;;;;19.10;88.40;;;;;;5096314;28;19983;-70
2022/07/18 06:51:34;;;;;;;;;;;19.20;88.40;;;;;;5091720;28;19920;-71
2022/07/18 06:54:01;;;;;;;;;;;19.30;88.10;;;;;;5096360;28;19952;-71
2022/07/18 06:56:28;;;;;;;;;;;19.40;88.00;;;;;;5093228;28;20200;-71
2022/07/18 06:58:54;;;;;;;;;;;19.50;87.60;;;;;;5098647;28;19927;-71
2022/07/18 07:01:21;;;;;;;;;;;19.60;88.30;;;;;;5097630;28;19920;-71
2022/07/18 07:03:49;;;;;;;;;;;19.70;87.60;;;;;;5091745;28;19952;-71
2022/07/18 07:06:16;;;;;;;;;;;19.80;87.80;;;;;;5097537;28;19983;-70
2022/07/18 07:08:43;;;;;;;;;;;20.00;88.10;;;;;;5094779;28;19924;-70
2022/07/18 07:11:10;;;;;;;;;;;20.20;87.00;;;;;;5095328;28;20186;-71
2022/07/18 07:13:36;;;;;;;;;;;20.30;86.90;;;;;;5090517;28;19980;-71
2022/07/18 07:16:03;;;;;;;;;;;20.40;87.00;;;;;;5098771;28;19971;-72
2022/07/18 07:18:31;;;;;;;;;;;20.70;86.20;;;;;;5103604;28;19927;-72
2022/07/18 07:20:59;;;;;;;;;;;20.80;85.60;;;;;;5108007;28;19927;-71
2022/07/18 07:23:26;;;;;;;;;;;21.00;85.80;;;;;;5103995;28;19928;-71
2022/07/18 07:25:54;;;;;;;;;;;21.00;85.40;;;;;;5098095;28;19940;-71
2022/07/18 07:28:21;;;;;;;;;;;21.10;85.50;;;;;;5100570;28;19957;-71
2022/07/18 07:30:47;;;;;;;;;;;21.20;85.90;;;;;;5104315;28;19931;-71
2022/07/18 07:33:14;;;;;;;;;;;21.40;85.30;;;;;;5098555;28;19927;-71
2022/07/18 07:35:41;;;;;;;;;;;21.60;85.20;;;;;;5096628;28;19927;-71
2022/07/18 07:38:10;;;;;;;;;;;21.70;83.90;;;;;;5098530;28;19928;-71
2022/07/18 07:40:36;;;;;;;;;;;21.90;83.60;;;;;;5102181;28;19927;-71
2022/07/18 07:43:07;;;;;;;;;;;22.10;81.70;;;;;;5102724;28;20103;-71
2022/07/18 07:45:33;;;;;;;;;;;22.20;80.30;;;;;;5099754;28;20144;-71
2022/07/18 07:48:00;;;;;;;;;;;22.30;81.10;;;;;;5096336;28;19958;-72
2022/07/18 07:50:27;;;;;;;;;;;22.40;77.30;;;;;;5106588;28;19965;-70
2022/07/18 07:52:54;;;;;;;;;;;22.60;76.90;;;;;;5090403;28;20182;-70
2022/07/18 07:55:22;;;;;;;;;;;22.80;74.40;;;;;;5096481;28;19935;-71
2022/07/18 07:57:48;;;;;;;;;;;22.90;73.90;;;;;;5101213;28;20179;-70
2022/07/18 08:00:15;;;;;;;;;;;23.10;74.60;;;;;;5104741;28;19956;-69
2022/07/18 08:02:51;;;;;;;;;;;23.10;71.20;;;;;;5098727;28;21025;-70
2022/07/18 08:05:17;;;;;;;;;;;23.10;71.70;;;;;;5097428;28;19920;-69
2022/07/18 08:07:44;;;;;;;;;;;23.20;68.50;;;;;;5095568;28;19958;-69
2022/07/18 08:10:11;;;;;;;;;;;23.30;67.70;;;;;;5093127;28;19921;-71
2022/07/18 08:12:38;;;;;;;;;;;23.40;65.10;;;;;;5096575;28;19987;-71
2022/07/18 08:15:06;;;;;;;;;;;23.60;64.20;;;;;;5103648;28;19920;-72
2022/07/18 08:17:32;;;;;;;;;;;23.70;64.60;;;;;;5106091;28;20004;-72
2022/07/18 08:19:59;;;;;;;;;;;23.80;65.40;;;;;;5106157;28;19920;-71
2022/07/18 08:22:26;;;;;;;;;;;24.00;64.50;;;;;;5105598;28;19927;-72
2022/07/18 08:24:52;;;;;;;;;;;24.00;65.00;;;;;;5104706;28;19921;-71
2022/07/18 08:27:19;;;;;;;;;;;24.10;63.60;;;;;;5104400;28;19962;-72
2022/07/18 08:29:47;;;;;;;;;;;24.20;61.30;;;;;;5104318;28;19956;-72
2022/07/18 08:32:13;;;;;;;;;;;24.30;62.60;;;;;;5104889;28;19995;-72
2022/07/18 08:34:40;;;;;;;;;;;24.50;62.20;;;;;;5097487;28;19943;-72
2022/07/18 08:37:07;;;;;;;;;;;24.50;61.10;;;;;;5095188;28;19983;-72
2022/07/18 08:39:33;;;;;;;;;;;24.50;60.30;;;;;;5105426;28;19958;-72
2022/07/18 08:42:01;;;;;;;;;;;24.50;61.80;;;;;;5105593;28;19920;-72
2022/07/18 08:44:28;;;;;;;;;;;24.60;62.10;;;;;;5104579;28;19927;-71
2022/07/18 08:46:57;;;;;;;;;;;24.70;62.40;;;;;;5105289;28;20203;-72
2022/07/18 08:49:24;;;;;;;;;;;24.80;61.90;;;;;;5105306;28;19926;-72
2022/07/18 08:51:52;;;;;;;;;;;25.00;62.00;;;;;;5105291;28;19926;-72
2022/07/18 08:54:18;;;;;;;;;;;25.20;62.80;;;;;;5105083;28;19927;-72
2022/07/18 08:56:45;;;;;;;;;;;25.30;63.60;;;;;;5105229;28;19921;-73
2022/07/18 08:59:12;;;;;;;;;;;25.50;62.60;;;;;;5105386;28;20377;-72
2022/07/18 09:01:38;;;;;;;;;;;25.50;62.50;;;;;;5104982;28;20163;-75
2022/07/18 09:04:16;;;;;;;;;;;25.70;61.40;;;;;;5103982;28;19988;-72
2022/07/18 09:06:44;;;;;;;;;;;25.70;61.20;;;;;;5102766;28;19979;-72
2022/07/18 09:09:12;;;;;;;;;;;25.60;61.40;;;;;;5105441;28;19920;-72
2022/07/18 09:11:49;;;;;;;;;;;25.70;62.50;;;;;;5105149;28;20204;-73
2022/07/18 09:14:28;;;;;;;;;;;25.70;62.40;;;;;;5104361;28;19988;-73
2022/07/18 09:17:00;;;;;;;;;;;25.80;61.60;;;;;;5099691;28;19920;-71
2022/07/18 09:19:28;;;;;;;;;;;25.90;61.00;;;;;;5097177;28;19951;-73
2022/07/18 09:21:54;;;;;;;;;;;26.00;60.80;;;;;;5095288;28;20294;-74
2022/07/18 09:24:21;;;;;;;;;;;26.00;61.00;;;;;;5093155;28;20174;-73
2022/07/18 09:26:50;;;;;;;;;;;26.10;61.10;;;;;;5085435;28;19937;-74
2022/07/18 09:29:18;;;;;;;;;;;26.10;60.90;;;;;;5104421;28;19962;-73
2022/07/18 09:31:49;;;;;;;;;;;26.10;60.30;;;;;;5099153;28;19962;-74
2022/07/18 09:34:32;;;;;;;;;;;26.10;60.00;;;;;;5101645;28;19979;-74
2022/07/18 09:37:00;;;;;;;;;;;26.20;61.00;;;;;;5097544;28;19926;-72
2022/07/18 09:39:27;;;;;;;;;;;26.20;61.20;;;;;;5099289;28;19979;-72
2022/07/18 09:41:53;;;;;;;;;;;26.20;60.40;;;;;;5104968;28;20127;-74
2022/07/18 09:44:21;;;;;;;;;;;26.30;61.00;;;;;;5103756;28;19951;-74
2022/07/18 09:47:02;;;;;;;;;;;26.30;61.80;;;;;;5079258;28;21938;-73
2022/07/18 09:49:31;;;;;;;;;;;26.50;61.80;;;;;;5104075;28;19927;-73
2022/07/18 09:52:04;;;;;;;;;;;26.70;60.90;;;;;;5104554;28;19979;-73
2022/07/18 09:54:36;;;;;;;;;;;26.90;60.00;;;;;;5103667;28;20231;-73
2022/07/18 09:57:02;;;;;;;;;;;26.90;59.50;;;;;;5104165;28;19991;-73
2022/07/18 09:59:29;;;;;;;;;;;27.00;59.40;;;;;;5104189;28;20167;-73
2022/07/18 10:01:56;;;;;;;;;;;27.00;59.40;;;;;;5104450;28;19996;-74
2022/07/18 10:04:23;;;;;;;;;;;27.10;58.90;;;;;;5103694;28;19987;-73
2022/07/18 10:06:50;;;;;;;;;;;27.10;60.40;;;;;;5102170;28;19955;-72
2022/07/18 10:09:18;;;;;;;;;;;27.20;59.00;;;;;;5104378;28;19927;-74
2022/07/18 10:11:45;;;;;;;;;;;27.30;59.70;;;;;;5103788;28;19920;-73
2022/07/18 10:14:12;;;;;;;;;;;27.50;59.00;;;;;;5102836;28;20005;-74
2022/07/18 10:16:38;;;;;;;;;;;27.50;59.30;;;;;;5104006;28;19979;-73
2022/07/18 10:19:05;;;;;;;;;;;27.60;58.90;;;;;;5098794;28;19931;-74
2022/07/18 10:21:32;;;;;;;;;;;27.70;58.80;;;;;;5101078;28;19979;-74
2022/07/18 10:24:01;;;;;;;;;;;27.80;58.70;;;;;;5090046;28;19988;-74
2022/07/18 10:26:30;;;;;;;;;;;27.80;58.20;;;;;;5083736;28;19928;-74
2022/07/18 10:29:16;;;;;;;;;;;27.90;59.50;;;;;;5086757;28;19957;-74
2022/07/18 10:31:57;;;;;;;;;;;28.00;58.60;;;;;;5103099;28;19927;-73
2022/07/18 10:34:29;;;;;;;;;;;28.10;59.10;;;;;;5098388;28;19983;-73
2022/07/18 10:37:08;;;;;;;;;;;28.10;57.20;;;;;;5096436;28;19920;-73
2022/07/18 10:39:35;;;;;;;;;;;28.10;57.90;;;;;;5102498;28;19951;-73
2022/07/18 10:42:30;;;;;;;;;;;28.30;58.00;;;;;;5104188;28;20255;-74
2022/07/18 10:44:58;;;;;;;;;;;28.40;58.30;;;;;;5070448;28;19921;-74
2022/07/18 10:47:29;;;;;;;;;;;28.60;59.10;;;;;;5102770;28;19951;-75
2022/07/18 10:50:06;;;;;;;;;;;28.80;59.20;;;;;;5103264;28;20238;-72
2022/07/18 10:52:51;;;;;;;;;;;28.90;57.80;;;;;;5102776;28;19927;-72
2022/07/18 10:55:28;;;;;;;;;;;29.00;56.80;;;;;;5098959;28;20152;-72
2022/07/18 10:58:09;;;;;;;;;;;29.10;57.00;;;;;;5103652;28;19987;-72
2022/07/18 11:00:38;;;;;;;;;;;29.20;56.60;;;;;;5082328;28;19920;-73
2022/07/18 11:03:05;;;;;;;;;;;29.30;56.80;;;;;;5094604;28;19928;-73
2022/07/18 11:05:33;;;;;;;;;;;29.40;55.90;;;;;;5102688;28;19927;-72
2022/07/18 11:08:25;;;;;;;;;;;29.50;56.70;;;;;;5099493;28;19920;-71
2022/07/18 11:11:14;;;;;;;;;;;29.60;57.00;;;;;;5082536;28;19920;-71
2022/07/18 11:13:43;;;;;;;;;;;29.70;56.90;;;;;;5097887;28;19943;-73
2022/07/18 11:16:12;;;;;;;;;;;29.80;56.80;;;;;;5103512;28;19920;-73
2022/07/18 11:18:58;;;;;;;;;;;30.00;57.00;;;;;;5103429;28;19942;-73
2022/07/18 11:21:27;;;;;;;;;;;30.10;56.10;;;;;;5103696;28;19959;-73
2022/07/18 11:23:55;;;;;;;;;;;30.20;55.80;;;;;;5102076;28;19947;-71
2022/07/18 11:26:22;;;;;;;;;;;30.30;55.60;;;;;;5103616;28;20255;-73
2022/07/18 11:28:49;;;;;;;;;;;30.30;55.60;;;;;;5092971;28;19992;-72
2022/07/18 11:31:17;;;;;;;;;;;30.40;55.00;;;;;;5089594;28;20243;-72
2022/07/18 11:33:45;;;;;;;;;;;30.50;55.30;;;;;;5102575;28;19983;-74
2022/07/18 11:36:13;;;;;;;;;;;30.60;55.10;;;;;;5103102;28;19926;-72
2022/07/18 11:38:40;;;;;;;;;;;30.60;54.30;;;;;;5103085;28;19995;-73
2022/07/18 11:41:07;;;;;;;;;;;30.70;54.50;;;;;;5103254;28;19959;-73
2022/07/18 11:43:34;;;;;;;;;;;30.80;54.70;;;;;;5102359;28;20250;-73
2022/07/18 11:46:02;;;;;;;;;;;30.90;56.00;;;;;;5103058;28;19927;-72
2022/07/18 11:48:30;;;;;;;;;;;31.00;55.50;;;;;;5103227;28;19951;-72
2022/07/18 11:50:57;;;;;;;;;;;31.10;54.70;;;;;;5103058;28;19920;-71
2022/07/18 11:53:23;;;;;;;;;;;31.30;54.70;;;;;;5102469;28;19923;-73
2022/07/18 11:55:50;;;;;;;;;;;31.10;53.10;;;;;;5102444;28;20227;-74
2022/07/18 11:58:18;;;;;;;;;;;31.10;54.50;;;;;;5103326;28;19920;-72
2022/07/18 12:00:45;;;;;;;;;;;31.40;54.40;;;;;;5097155;28;19956;-74
2022/07/18 12:03:13;;;;;;;;;;;31.60;54.50;;;;;;5093621;28;19951;-74
2022/07/18 12:05:42;;;;;;;;;;;31.80;53.50;;;;;;5106441;28;19927;-73
2022/07/18 12:08:31;;;;;;;;;;;31.90;53.60;;;;;;5104323;28;19952;-73
2022/07/18 12:11:05;;;;;;;;;;;32.00;54.10;;;;;;5106521;28;19959;-73
2022/07/18 12:13:46;;;;;;;;;;;32.00;53.70;;;;;;5106034;28;19927;-73
2022/07/18 12:16:23;;;;;;;;;;;32.10;53.70;;;;;;5106297;28;19981;-72
2022/07/18 12:18:50;;;;;;;;;;;32.20;53.00;;;;;;5085989;28;20201;-73
2022/07/18 12:21:18;;;;;;;;;;;32.30;53.00;;;;;;5103969;28;19920;-74
2022/07/18 12:23:44;;;;;;;;;;;32.10;52.70;;;;;;5105694;28;19920;-73
2022/07/18 12:26:26;;;;;;;;;;;32.10;53.40;;;;;;5106347;28;20197;-73
2022/07/18 12:29:03;;;;;;;;;;;32.20;54.50;;;;;;5105985;28;19979;-73
2022/07/18 12:31:37;;;;;;;;;;;32.40;53.30;;;;;;5105896;28;19920;-73
2022/07/18 12:34:11;;;;;;;;;;;32.50;53.10;;;;;;5105308;28;19959;-71
2022/07/18 12:36:52;;;;;;;;;;;32.60;52.80;;;;;;5105600;28;20041;-74
2022/07/18 12:39:27;;;;;;;;;;;32.60;52.40;;;;;;5102544;28;19998;-74
2022/07/18 12:41:54;;;;;;;;;;;32.60;53.00;;;;;;5105762;28;19951;-72
2022/07/18 12:44:20;;;;;;;;;;;32.70;53.30;;;;;;5104842;28;20172;-74
2022/07/18 12:46:47;;;;;;;;;;;32.80;52.90;;;;;;5105789;28;20239;-74
2022/07/18 12:49:14;;;;;;;;;;;33.00;53.30;;;;;;5105686;28;19955;-75
2022/07/18 12:51:41;;;;;;;;;;;33.10;52.30;;;;;;5099120;28;19967;-74
2022/07/18 12:54:08;;;;;;;;;;;33.10;52.20;;;;;;5104570;28;20082;-73
2022/07/18 12:56:36;;;;;;;;;;;33.30;52.50;;;;;;5097907;28;19981;-74
2022/07/18 12:59:03;;;;;;;;;;;33.30;51.30;;;;;;5105188;28;19956;-73
2022/07/18 13:01:30;;;;;;;;;;;33.50;51.50;;;;;;5096427;28;20231;-74
2022/07/18 13:03:56;;;;;;;;;;;33.70;52.20;;;;;;5102772;28;19919;-72
2022/07/18 13:06:23;;;;;;;;;;;34.00;51.60;;;;;;5089588;28;19988;-73
2022/07/18 13:08:50;;;;;;;;;;;34.10;51.10;;;;;;5102528;28;19920;-73
2022/07/18 13:11:16;;;;;;;;;;;34.20;50.50;;;;;;5104606;28;19996;-73
2022/07/18 13:13:44;;;;;;;;;;;34.30;51.20;;;;;;5101764;28;19951;-74
2022/07/18 13:16:11;;;;;;;;;;;34.50;51.00;;;;;;5104953;28;19962;-73
2022/07/18 13:18:38;;;;;;;;;;;34.60;50.80;;;;;;5104833;28;20112;-74
2022/07/18 13:21:04;;;;;;;;;;;34.60;50.90;;;;;;5105044;28;20279;-75
2022/07/18 13:23:31;;;;;;;;;;;34.80;50.60;;;;;;5103981;28;19920;-73
2022/07/18 13:25:58;;;;;;;;;;;34.80;50.80;;;;;;5105184;28;19927;-74
2022/07/18 13:28:27;;;;;;;;;;;35.00;50.90;;;;;;5104766;28;19920;-74
2022/07/18 13:30:55;;;;;;;;;;;35.10;50.20;;;;;;5104683;28;19920;-73
2022/07/18 13:33:22;;;;;;;;;;;35.30;50.40;;;;;;5096882;28;20224;-74
2022/07/18 13:35:49;;;;;;;;;;;35.60;49.80;;;;;;5090385;28;19927;-73
2022/07/18 13:38:16;;;;;;;;;;;35.80;50.00;;;;;;5104577;28;20122;-75
2022/07/18 13:40:42;;;;;;;;;;;35.80;49.00;;;;;;5105160;28;19943;-75
2022/07/18 13:43:09;;;;;;;;;;;35.80;49.70;;;;;;5096247;28;19971;-75
2022/07/18 13:45:35;;;;;;;;;;;35.70;48.50;;;;;;5092036;28;19988;-74
2022/07/18 13:48:04;;;;;;;;;;;35.60;49.90;;;;;;5096110;28;20160;-76
2022/07/18 13:50:30;;;;;;;;;;;35.70;50.00;;;;;;5100135;28;19920;-75
2022/07/18 13:52:57;;;;;;;;;;;35.90;49.00;;;;;;5103720;28;20016;-76
2022/07/18 13:55:24;;;;;;;;;;;36.10;50.00;;;;;;5104585;28;20183;-75
2022/07/18 13:57:51;;;;;;;;;;;36.30;48.70;;;;;;5104790;28;19960;-76
2022/07/18 14:00:18;;;;;;;;;;;36.40;47.80;;;;;;5104604;28;19920;-76
2022/07/18 14:02:45;;;;;;;;;;;36.50;48.30;;;;;;5094111;28;19952;-75
2022/07/18 14:05:13;;;;;;;;;;;36.40;48.00;;;;;;5087562;28;19984;-76
2022/07/18 14:07:40;;;;;;;;;;;36.40;48.50;;;;;;5103548;28;19952;-75
2022/07/18 14:10:07;;;;;;;;;;;36.30;47.70;;;;;;5104508;28;19983;-75
2022/07/18 14:12:34;;;;;;;;;;;36.20;48.30;;;;;;5096098;28;20234;-74
2022/07/18 14:15:00;;;;;;;;;;;36.20;48.30;;;;;;5103377;28;19929;-74
2022/07/18 14:17:29;;;;;;;;;;;36.20;48.80;;;;;;5102422;28;19958;-74
2022/07/18 14:19:55;;;;;;;;;;;36.30;48.90;;;;;;5095549;28;20038;-75
2022/07/18 14:22:23;;;;;;;;;;;36.50;49.00;;;;;;5101072;28;19983;-74
2022/07/18 14:24:50;;;;;;;;;;;36.60;47.80;;;;;;5096714;28;20227;-75